Elmas, Italy

3:16 PM CEST on August 30, 2015 (GMT +0200)
Tuvixeddu | | Change Station
CLOSE
Current Station
Personal Weather Station
Location: Cagliari, SARDEGNA
Elevation: 89 ft
Nearby Weather Stations

Elev 89 ft 39.23 °N, 9.10 °E | Updated 7 minutes ago

Partly Cloudy
Partly Cloudy
88.6 °F
Feels Like 90 °F
N
12.0
Wind Variable Wind from SE
Gusts 14.0 mph

Today
High -- | Low -- °F
--% Chance of Precip.
Yesterday
High -- | Low -- °F
Precip. -- in
6:50 AM 7:58 PM
Full, 99% visible
Pressure 30.09 in
Visibility 6.2 miles
Clouds Few 3000 ft
Heat Index 90 °F
Dew Point 63 °F
Humidity 43%
Rainfall 0.00 in
Snow Depth Not available.
UV 5.2 out of 12
Pollen Not available.
Air Quality Not available.
Flu Activity Not available.
METAR LIED 301255Z 16016KT 9999 FEW030 33/21 Q1019 RMK FEW VIS MIN 9999 WIND THR35 16015KT WIND THR17 16015KT BLU
Pressure 30.09 in
Visibility 6.2 miles
Clouds Few 3000 ft
Heat Index 90 °F
Dew Point 63 °F
Humidity 43%
Rainfall 0.00 in
Snow Depth Not available.
UV 5.2 out of 12
Pollen Not available.
Air Quality Not available.
Flu Activity Not available.
METAR LIED 301255Z 16016KT 9999 FEW030 33/21 Q1019 RMK FEW VIS MIN 9999 WIND THR35 16015KT WIND THR17 16015KT BLU

10-Day Weather Forecast

×

Almanac

Astronomy

Aug. 30, 2015 Rise Set
Actual Time
Civil Twilight
Nautical Twilight
Astronomical Twilight
Moon
Length of Visible Light
Length of Day
Tomorrow will be .
, % of the Moon is Illuminated

Today's Extremes

Country Highs Country Lows

Community

WunderPhotos

Upload Photos

1,850,946 photos uploaded!

WunderBlogs® & News

Nearby

Air Quality

  Air Quality AQ Index Pollutant
Not available.

Snow Depth

Station Depth Elevation

Earthquake Activity

City Distance Mag. Time & Date
Minimum magnitude displayed is 2.5.

Coastal Water Temperatures

Place Temperature

Stations

Nearby Weather Stations

Station Location Temp. Windchill Dew Point Humidity Wind Precip. Elev Updated Type